sensor_id;sensor_type;location;lat;lon;timestamp;temperature;humidity
12156;DHT22;6141;49.092;8.516;2023-03-04T00:01:33;3.50;37.30
12156;DHT22;6141;49.092;8.516;2023-03-04T00:04:01;3.60;37.50
12156;DHT22;6141;49.092;8.516;2023-03-04T00:06:29;3.60;37.30
12156;DHT22;6141;49.092;8.516;2023-03-04T00:08:57;3.60;37.70
12156;DHT22;6141;49.092;8.516;2023-03-04T00:11:25;3.50;37.80
12156;DHT22;6141;49.092;8.516;2023-03-04T00:13:54;3.30;37.90
12156;DHT22;6141;49.092;8.516;2023-03-04T00:16:23;3.10;39.10
12156;DHT22;6141;49.092;8.516;2023-03-04T00:18:53;3.00;39.10
12156;DHT22;6141;49.092;8.516;2023-03-04T00:21:21;3.00;39.10
12156;DHT22;6141;49.092;8.516;2023-03-04T00:23:49;3.00;39.10
12156;DHT22;6141;49.092;8.516;2023-03-04T00:26:17;3.00;39.10
12156;DHT22;6141;49.092;8.516;2023-03-04T00:28:46;3.00;39.10
12156;DHT22;6141;49.092;8.516;2023-03-04T00:31:14;3.10;38.70
12156;DHT22;6141;49.092;8.516;2023-03-04T00:33:44;3.10;39.20
12156;DHT22;6141;49.092;8.516;2023-03-04T00:36:12;3.30;38.60
12156;DHT22;6141;49.092;8.516;2023-03-04T00:38:40;3.40;38.70
12156;DHT22;6141;49.092;8.516;2023-03-04T00:41:08;3.60;37.90
12156;DHT22;6141;49.092;8.516;2023-03-04T00:43:36;3.70;36.90
12156;DHT22;6141;49.092;8.516;2023-03-04T00:46:04;3.80;36.80
12156;DHT22;6141;49.092;8.516;2023-03-04T00:48:32;3.50;36.90
12156;DHT22;6141;49.092;8.516;2023-03-04T00:51:03;3.20;37.60
12156;DHT22;6141;49.092;8.516;2023-03-04T00:53:31;3.00;39.10
12156;DHT22;6141;49.092;8.516;2023-03-04T00:55:59;3.20;39.30
12156;DHT22;6141;49.092;8.516;2023-03-04T00:58:27;3.40;37.90
12156;DHT22;6141;49.092;8.516;2023-03-04T01:00:55;3.40;37.40
12156;DHT22;6141;49.092;8.516;2023-03-04T01:03:24;3.30;37.30
12156;DHT22;6141;49.092;8.516;2023-03-04T01:05:52;3.40;36.40
12156;DHT22;6141;49.092;8.516;2023-03-04T01:08:22;3.30;36.50
12156;DHT22;6141;49.092;8.516;2023-03-04T01:10:52;3.10;37.90
12156;DHT22;6141;49.092;8.516;2023-03-04T01:13:20;3.10;37.70
12156;DHT22;6141;49.092;8.516;2023-03-04T01:15:48;3.20;38.40
12156;DHT22;6141;49.092;8.516;2023-03-04T01:18:20;3.20;37.90
12156;DHT22;6141;49.092;8.516;2023-03-04T01:20:48;3.30;37.60
12156;DHT22;6141;49.092;8.516;2023-03-04T01:23:17;3.40;37.50
12156;DHT22;6141;49.092;8.516;2023-03-04T01:25:47;3.30;37.60
12156;DHT22;6141;49.092;8.516;2023-03-04T01:28:15;3.20;37.60
12156;DHT22;6141;49.092;8.516;2023-03-04T01:30:43;3.10;37.00
12156;DHT22;6141;49.092;8.516;2023-03-04T01:33:11;3.00;39.10
12156;DHT22;6141;49.092;8.516;2023-03-04T01:35:41;2.90;38.60
12156;DHT22;6141;49.092;8.516;2023-03-04T01:38:09;3.00;38.60
12156;DHT22;6141;49.092;8.516;2023-03-04T01:40:39;3.20;37.80
12156;DHT22;6141;49.092;8.516;2023-03-04T01:43:11;3.30;37.40
12156;DHT22;6141;49.092;8.516;2023-03-04T01:45:42;3.40;36.60
12156;DHT22;6141;49.092;8.516;2023-03-04T01:48:10;3.20;35.80
12156;DHT22;6141;49.092;8.516;2023-03-04T01:50:40;3.00;36.00
12156;DHT22;6141;49.092;8.516;2023-03-04T01:53:09;2.80;37.30
12156;DHT22;6141;49.092;8.516;2023-03-04T01:55:42;2.70;38.10
12156;DHT22;6141;49.092;8.516;2023-03-04T01:58:11;2.80;38.20
12156;DHT22;6141;49.092;8.516;2023-03-04T02:00:39;2.80;38.90
12156;DHT22;6141;49.092;8.516;2023-03-04T02:03:09;2.60;38.70
12156;DHT22;6141;49.092;8.516;2023-03-04T02:05:38;2.50;38.60
12156;DHT22;6141;49.092;8.516;2023-03-04T02:08:07;2.50;38.60
12156;DHT22;6141;49.092;8.516;2023-03-04T02:10:36;2.50;38.60
12156;DHT22;6141;49.092;8.516;2023-03-04T02:13:06;2.70;38.00
12156;DHT22;6141;49.092;8.516;2023-03-04T02:15:35;2.70;38.70
12156;DHT22;6141;49.092;8.516;2023-03-04T02:18:06;2.80;37.20
12156;DHT22;6141;49.092;8.516;2023-03-04T02:20:40;2.80;37.70
12156;DHT22;6141;49.092;8.516;2023-03-04T02:23:14;2.50;38.00
12156;DHT22;6141;49.092;8.516;2023-03-04T02:25:44;2.50;38.70
12156;DHT22;6141;49.092;8.516;2023-03-04T02:28:16;2.60;38.30
12156;DHT22;6141;49.092;8.516;2023-03-04T02:30:45;2.70;37.50
12156;DHT22;6141;49.092;8.516;2023-03-04T02:33:15;2.80;36.50
12156;DHT22;6141;49.092;8.516;2023-03-04T02:35:44;2.90;35.70
12156;DHT22;6141;49.092;8.516;2023-03-04T02:38:13;2.90;35.40
12156;DHT22;6141;49.092;8.516;2023-03-04T02:40:41;2.80;35.70
12156;DHT22;6141;49.092;8.516;2023-03-04T02:43:10;2.50;36.20
12156;DHT22;6141;49.092;8.516;2023-03-04T02:45:41;2.30;36.60
12156;DHT22;6141;49.092;8.516;2023-03-04T02:48:10;2.20;37.20
12156;DHT22;6141;49.092;8.516;2023-03-04T02:50:40;2.10;38.20
12156;DHT22;6141;49.092;8.516;2023-03-04T02:53:08;2.10;38.20
12156;DHT22;6141;49.092;8.516;2023-03-04T02:55:37;2.00;39.10
12156;DHT22;6141;49.092;8.516;2023-03-04T02:58:05;2.00;39.10
12156;DHT22;6141;49.092;8.516;2023-03-04T03:00:35;1.90;39.80
12156;DHT22;6141;49.092;8.516;2023-03-04T03:03:05;1.80;39.70
12156;DHT22;6141;49.092;8.516;2023-03-04T03:05:35;1.70;41.10
12156;DHT22;6141;49.092;8.516;2023-03-04T03:08:06;1.70;41.20
12156;DHT22;6141;49.092;8.516;2023-03-04T03:10:34;1.80;40.70
12156;DHT22;6141;49.092;8.516;2023-03-04T03:13:06;1.80;40.00
12156;DHT22;6141;49.092;8.516;2023-03-04T03:15:35;1.80;39.90
12156;DHT22;6141;49.092;8.516;2023-03-04T03:18:19;1.90;39.40
12156;DHT22;6141;49.092;8.516;2023-03-04T03:20:48;1.80;40.20
12156;DHT22;6141;49.092;8.516;2023-03-04T03:23:17;1.60;40.20
12156;DHT22;6141;49.092;8.516;2023-03-04T03:25:48;1.40;41.10
12156;DHT22;6141;49.092;8.516;2023-03-04T03:28:16;1.30;41.60
12156;DHT22;6141;49.092;8.516;2023-03-04T03:30:45;1.40;41.40
12156;DHT22;6141;49.092;8.516;2023-03-04T03:33:14;1.50;41.20
12156;DHT22;6141;49.092;8.516;2023-03-04T03:35:43;1.80;39.90
12156;DHT22;6141;49.092;8.516;2023-03-04T03:38:12;1.90;38.10
12156;DHT22;6141;49.092;8.516;2023-03-04T03:40:39;1.90;38.10
12156;DHT22;6141;49.092;8.516;2023-03-04T03:43:08;1.70;37.90
12156;DHT22;6141;49.092;8.516;2023-03-04T03:45:36;1.40;39.20
12156;DHT22;6141;49.092;8.516;2023-03-04T03:48:04;1.10;40.80
12156;DHT22;6141;49.092;8.516;2023-03-04T03:50:32;1.00;41.90
12156;DHT22;6141;49.092;8.516;2023-03-04T03:53:01;1.00;41.90
12156;DHT22;6141;49.092;8.516;2023-03-04T03:55:30;1.00;41.50
12156;DHT22;6141;49.092;8.516;2023-03-04T03:57:58;1.10;41.20
12156;DHT22;6141;49.092;8.516;2023-03-04T04:00:26;1.10;41.30
12156;DHT22;6141;49.092;8.516;2023-03-04T04:02:55;1.00;41.70
12156;DHT22;6141;49.092;8.516;2023-03-04T04:05:24;1.30;41.40
12156;DHT22;6141;49.092;8.516;2023-03-04T04:07:52;1.40;40.60
12156;DHT22;6141;49.092;8.516;2023-03-04T04:10:21;1.60;40.00
12156;DHT22;6141;49.092;8.516;2023-03-04T04:12:49;1.80;38.60
12156;DHT22;6141;49.092;8.516;2023-03-04T04:15:17;1.70;36.80
12156;DHT22;6141;49.092;8.516;2023-03-04T04:17:45;1.70;36.80
12156;DHT22;6141;49.092;8.516;2023-03-04T04:20:14;1.70;36.60
12156;DHT22;6141;49.092;8.516;2023-03-04T04:22:42;1.50;37.70
12156;DHT22;6141;49.092;8.516;2023-03-04T04:25:10;1.20;37.80
12156;DHT22;6141;49.092;8.516;2023-03-04T04:27:39;1.30;38.60
12156;DHT22;6141;49.092;8.516;2023-03-04T04:30:08;1.40;38.40
12156;DHT22;6141;49.092;8.516;2023-03-04T04:32:36;1.20;38.40
12156;DHT22;6141;49.092;8.516;2023-03-04T04:35:05;1.20;39.20
12156;DHT22;6141;49.092;8.516;2023-03-04T04:37:33;1.20;39.60
12156;DHT22;6141;49.092;8.516;2023-03-04T04:40:01;1.20;38.10
12156;DHT22;6141;49.092;8.516;2023-03-04T04:42:29;1.30;38.80
12156;DHT22;6141;49.092;8.516;2023-03-04T04:44:58;1.40;37.60
12156;DHT22;6141;49.092;8.516;2023-03-04T04:47:27;1.50;37.70
12156;DHT22;6141;49.092;8.516;2023-03-04T04:49:55;1.60;37.10
12156;DHT22;6141;49.092;8.516;2023-03-04T04:52:23;1.60;37.80
12156;DHT22;6141;49.092;8.516;2023-03-04T04:54:51;1.50;36.20
12156;DHT22;6141;49.092;8.516;2023-03-04T04:57:19;1.20;37.40
12156;DHT22;6141;49.092;8.516;2023-03-04T04:59:47;1.20;37.40
12156;DHT22;6141;49.092;8.516;2023-03-04T05:02:16;1.10;38.00
12156;DHT22;6141;49.092;8.516;2023-03-04T05:04:45;1.10;38.10
12156;DHT22;6141;49.092;8.516;2023-03-04T05:07:13;1.20;38.30
12156;DHT22;6141;49.092;8.516;2023-03-04T05:09:41;1.10;38.50
12156;DHT22;6141;49.092;8.516;2023-03-04T05:12:09;0.90;38.10
12156;DHT22;6141;49.092;8.516;2023-03-04T05:14:37;0.90;39.20
12156;DHT22;6141;49.092;8.516;2023-03-04T05:17:05;1.00;39.00
12156;DHT22;6141;49.092;8.516;2023-03-04T05:19:34;1.10;37.90
12156;DHT22;6141;49.092;8.516;2023-03-04T05:22:02;1.00;38.30
12156;DHT22;6141;49.092;8.516;2023-03-04T05:24:30;1.10;38.50
12156;DHT22;6141;49.092;8.516;2023-03-04T05:26:59;1.20;37.40
12156;DHT22;6141;49.092;8.516;2023-03-04T05:29:27;1.30;37.50
12156;DHT22;6141;49.092;8.516;2023-03-04T05:31:56;1.10;37.30
12156;DHT22;6141;49.092;8.516;2023-03-04T05:34:24;1.00;37.20
12156;DHT22;6141;49.092;8.516;2023-03-04T05:36:54;1.00;37.70
12156;DHT22;6141;49.092;8.516;2023-03-04T05:39:22;1.20;37.40
12156;DHT22;6141;49.092;8.516;2023-03-04T05:41:50;1.30;37.50
12156;DHT22;6141;49.092;8.516;2023-03-04T05:44:18;1.40;37.60
12156;DHT22;6141;49.092;8.516;2023-03-04T05:46:46;1.20;37.40
12156;DHT22;6141;49.092;8.516;2023-03-04T05:49:16;1.20;37.40
12156;DHT22;6141;49.092;8.516;2023-03-04T05:51:44;1.10;37.30
12156;DHT22;6141;49.092;8.516;2023-03-04T05:54:14;0.90;38.00
12156;DHT22;6141;49.092;8.516;2023-03-04T05:56:42;0.80;38.90
12156;DHT22;6141;49.092;8.516;2023-03-04T05:59:10;0.60;39.80
12156;DHT22;6141;49.092;8.516;2023-03-04T06:01:39;0.50;40.10
12156;DHT22;6141;49.092;8.516;2023-03-04T06:04:07;0.40;40.00
12156;DHT22;6141;49.092;8.516;2023-03-04T06:06:35;0.30;39.90
12156;DHT22;6141;49.092;8.516;2023-03-04T06:09:03;0.30;40.20
12156;DHT22;6141;49.092;8.516;2023-03-04T06:11:32;0.30;40.80
12156;DHT22;6141;49.092;8.516;2023-03-04T06:14:02;0.40;41.00
12156;DHT22;6141;49.092;8.516;2023-03-04T06:16:30;0.40;40.80
12156;DHT22;6141;49.092;8.516;2023-03-04T06:18:58;0.60;41.10
12156;DHT22;6141;49.092;8.516;2023-03-04T06:21:26;0.80;40.40
12156;DHT22;6141;49.092;8.516;2023-03-04T06:23:55;0.90;40.10
12156;DHT22;6141;49.092;8.516;2023-03-04T06:26:23;0.90;40.10
12156;DHT22;6141;49.092;8.516;2023-03-04T06:28:52;0.90;40.90
12156;DHT22;6141;49.092;8.516;2023-03-04T06:31:22;1.00;41.20
12156;DHT22;6141;49.092;8.516;2023-03-04T06:33:50;1.00;41.10
12156;DHT22;6141;49.092;8.516;2023-03-04T06:36:19;0.80;41.90
12156;DHT22;6141;49.092;8.516;2023-03-04T06:38:47;0.80;42.20
12156;DHT22;6141;49.092;8.516;2023-03-04T06:41:15;0.80;42.30
12156;DHT22;6141;49.092;8.516;2023-03-04T06:43:43;1.00;42.50
12156;DHT22;6141;49.092;8.516;2023-03-04T06:46:12;1.20;42.40
12156;DHT22;6141;49.092;8.516;2023-03-04T06:48:40;1.30;42.30
12156;DHT22;6141;49.092;8.516;2023-03-04T06:51:09;1.30;42.60
12156;DHT22;6141;49.092;8.516;2023-03-04T06:53:38;1.40;43.40
12156;DHT22;6141;49.092;8.516;2023-03-04T06:56:07;1.30;43.60
12156;DHT22;6141;49.092;8.516;2023-03-04T06:58:35;1.40;43.80
12156;DHT22;6141;49.092;8.516;2023-03-04T07:01:10;1.50;44.30
12156;DHT22;6141;49.092;8.516;2023-03-04T07:03:40;1.30;45.70
12156;DHT22;6141;49.092;8.516;2023-03-04T07:06:08;1.30;45.80
12156;DHT22;6141;49.092;8.516;2023-03-04T07:08:36;1.40;45.80
12156;DHT22;6141;49.092;8.516;2023-03-04T07:11:04;1.20;47.70
12156;DHT22;6141;49.092;8.516;2023-03-04T07:13:33;1.10;49.30
12156;DHT22;6141;49.092;8.516;2023-03-04T07:16:04;1.30;48.60
12156;DHT22;6141;49.092;8.516;2023-03-04T07:18:32;1.40;48.00
12156;DHT22;6141;49.092;8.516;2023-03-04T07:21:01;1.60;48.30
12156;DHT22;6141;49.092;8.516;2023-03-04T07:23:30;1.70;47.70
12156;DHT22;6141;49.092;8.516;2023-03-04T07:25:58;1.80;48.40
12156;DHT22;6141;49.092;8.516;2023-03-04T07:28:29;1.90;48.50
12156;DHT22;6141;49.092;8.516;2023-03-04T07:31:06;2.00;48.20
12156;DHT22;6141;49.092;8.516;2023-03-04T07:33:34;2.00;48.50
12156;DHT22;6141;49.092;8.516;2023-03-04T07:36:04;2.10;49.50
12156;DHT22;6141;49.092;8.516;2023-03-04T07:38:33;2.10;50.40
12156;DHT22;6141;49.092;8.516;2023-03-04T07:41:01;2.20;50.50
12156;DHT22;6141;49.092;8.516;2023-03-04T07:43:29;2.40;50.30
12156;DHT22;6141;49.092;8.516;2023-03-04T07:45:58;2.40;50.10
12156;DHT22;6141;49.092;8.516;2023-03-04T07:48:26;2.50;49.80
12156;DHT22;6141;49.092;8.516;2023-03-04T07:51:01;2.80;49.90
12156;DHT22;6141;49.092;8.516;2023-03-04T07:53:32;2.70;49.60
12156;DHT22;6141;49.092;8.516;2023-03-04T07:56:00;2.70;49.70
12156;DHT22;6141;49.092;8.516;2023-03-04T07:58:29;2.90;48.60
12156;DHT22;6141;49.092;8.516;2023-03-04T08:00:57;3.00;49.00
12156;DHT22;6141;49.092;8.516;2023-03-04T08:03:27;2.90;49.20
12156;DHT22;6141;49.092;8.516;2023-03-04T08:05:55;3.00;49.30
12156;DHT22;6141;49.092;8.516;2023-03-04T08:08:23;2.90;50.20
12156;DHT22;6141;49.092;8.516;2023-03-04T08:10:52;2.90;51.10
12156;DHT22;6141;49.092;8.516;2023-03-04T08:13:20;3.00;50.90
12156;DHT22;6141;49.092;8.516;2023-03-04T08:15:51;3.20;50.00
12156;DHT22;6141;49.092;8.516;2023-03-04T08:18:22;3.20;50.00
12156;DHT22;6141;49.092;8.516;2023-03-04T08:20:50;3.20;49.90
12156;DHT22;6141;49.092;8.516;2023-03-04T08:23:18;3.20;50.00
12156;DHT22;6141;49.092;8.516;2023-03-04T08:25:47;3.40;50.40
12156;DHT22;6141;49.092;8.516;2023-03-04T08:28:17;3.40;50.30
12156;DHT22;6141;49.092;8.516;2023-03-04T08:30:50;3.40;50.80
12156;DHT22;6141;49.092;8.516;2023-03-04T08:33:19;3.40;51.30
12156;DHT22;6141;49.092;8.516;2023-03-04T08:35:47;3.50;50.30
12156;DHT22;6141;49.092;8.516;2023-03-04T08:38:15;3.60;50.20
12156;DHT22;6141;49.092;8.516;2023-03-04T08:40:43;3.60;50.50
12156;DHT22;6141;49.092;8.516;2023-03-04T08:43:11;3.50;51.70
12156;DHT22;6141;49.092;8.516;2023-03-04T08:45:41;3.30;52.30
12156;DHT22;6141;49.092;8.516;2023-03-04T08:48:10;3.30;54.70
12156;DHT22;6141;49.092;8.516;2023-03-04T08:50:38;3.30;55.80
12156;DHT22;6141;49.092;8.516;2023-03-04T08:53:06;3.10;56.00
12156;DHT22;6141;49.092;8.516;2023-03-04T08:55:34;3.10;59.50
12156;DHT22;6141;49.092;8.516;2023-03-04T08:58:04;3.00;59.30
12156;DHT22;6141;49.092;8.516;2023-03-04T09:00:32;2.90;59.50
12156;DHT22;6141;49.092;8.516;2023-03-04T09:03:02;2.90;59.30
12156;DHT22;6141;49.092;8.516;2023-03-04T09:05:31;2.90;60.30
12156;DHT22;6141;49.092;8.516;2023-03-04T09:07:59;2.90;60.10
12156;DHT22;6141;49.092;8.516;2023-03-04T09:10:27;3.00;60.20
12156;DHT22;6141;49.092;8.516;2023-03-04T09:12:56;3.20;58.50
12156;DHT22;6141;49.092;8.516;2023-03-04T09:15:25;3.50;58.70
12156;DHT22;6141;49.092;8.516;2023-03-04T09:17:53;3.70;58.60
12156;DHT22;6141;49.092;8.516;2023-03-04T09:20:23;3.80;57.50
12156;DHT22;6141;49.092;8.516;2023-03-04T09:22:51;4.00;56.60
12156;DHT22;6141;49.092;8.516;2023-03-04T09:25:20;4.10;55.20
12156;DHT22;6141;49.092;8.516;2023-03-04T09:27:48;4.30;53.00
12156;DHT22;6141;49.092;8.516;2023-03-04T09:30:16;4.50;52.60
12156;DHT22;6141;49.092;8.516;2023-03-04T09:32:45;4.60;51.10
12156;DHT22;6141;49.092;8.516;2023-03-04T09:35:13;4.60;50.10
12156;DHT22;6141;49.092;8.516;2023-03-04T09:37:42;4.60;50.30
12156;DHT22;6141;49.092;8.516;2023-03-04T09:40:15;4.60;49.90
12156;DHT22;6141;49.092;8.516;2023-03-04T09:42:45;4.70;49.50
12156;DHT22;6141;49.092;8.516;2023-03-04T09:45:15;4.70;48.30
12156;DHT22;6141;49.092;8.516;2023-03-04T09:47:44;4.70;47.70
12156;DHT22;6141;49.092;8.516;2023-03-04T09:50:13;4.80;48.00
12156;DHT22;6141;49.092;8.516;2023-03-04T09:52:47;5.00;45.50
12156;DHT22;6141;49.092;8.516;2023-03-04T09:55:19;5.00;45.90
12156;DHT22;6141;49.092;8.516;2023-03-04T09:57:50;5.10;45.00
12156;DHT22;6141;49.092;8.516;2023-03-04T10:00:21;5.00;44.90
12156;DHT22;6141;49.092;8.516;2023-03-04T10:02:56;5.10;45.00
12156;DHT22;6141;49.092;8.516;2023-03-04T10:05:28;5.20;44.70
12156;DHT22;6141;49.092;8.516;2023-03-04T10:08:02;5.30;44.70
12156;DHT22;6141;49.092;8.516;2023-03-04T10:10:34;5.40;43.90
12156;DHT22;6141;49.092;8.516;2023-03-04T10:13:04;5.40;43.30
12156;DHT22;6141;49.092;8.516;2023-03-04T10:15:34;5.40;43.50
12156;DHT22;6141;49.092;8.516;2023-03-04T10:18:06;5.40;43.50
12156;DHT22;6141;49.092;8.516;2023-03-04T10:20:43;5.50;41.90
12156;DHT22;6141;49.092;8.516;2023-03-04T10:23:15;5.60;41.50
12156;DHT22;6141;49.092;8.516;2023-03-04T10:25:45;5.70;41.70
12156;DHT22;6141;49.092;8.516;2023-03-04T10:28:20;5.90;41.70
12156;DHT22;6141;49.092;8.516;2023-03-04T10:30:52;5.90;40.70
12156;DHT22;6141;49.092;8.516;2023-03-04T10:33:24;6.00;40.70
12156;DHT22;6141;49.092;8.516;2023-03-04T10:35:54;5.90;39.80
12156;DHT22;6141;49.092;8.516;2023-03-04T10:38:29;6.10;39.50
12156;DHT22;6141;49.092;8.516;2023-03-04T10:41:00;6.20;39.60
12156;DHT22;6141;49.092;8.516;2023-03-04T10:43:28;6.10;39.90
12156;DHT22;6141;49.092;8.516;2023-03-04T10:45:57;5.90;39.50
12156;DHT22;6141;49.092;8.516;2023-03-04T10:48:26;5.80;40.40
12156;DHT22;6141;49.092;8.516;2023-03-04T10:50:58;5.80;40.50
12156;DHT22;6141;49.092;8.516;2023-03-04T10:53:38;5.90;38.90
12156;DHT22;6141;49.092;8.516;2023-03-04T10:58:49;5.70;39.80
12156;DHT22;6141;49.092;8.516;2023-03-04T11:01:17;5.70;39.80
12156;DHT22;6141;49.092;8.516;2023-03-04T11:03:52;5.60;39.50
12156;DHT22;6141;49.092;8.516;2023-03-04T11:06:21;5.60;39.70
12156;DHT22;6141;49.092;8.516;2023-03-04T11:08:55;5.60;39.90
12156;DHT22;6141;49.092;8.516;2023-03-04T11:11:24;5.70;39.60
12156;DHT22;6141;49.092;8.516;2023-03-04T11:13:57;5.60;39.40
12156;DHT22;6141;49.092;8.516;2023-03-04T11:16:27;5.60;39.80
12156;DHT22;6141;49.092;8.516;2023-03-04T11:18:58;5.50;39.90
12156;DHT22;6141;49.092;8.516;2023-03-04T11:21:28;5.60;39.80
12156;DHT22;6141;49.092;8.516;2023-03-04T11:23:59;5.70;40.20
12156;DHT22;6141;49.092;8.516;2023-03-04T11:26:28;5.80;39.80
12156;DHT22;6141;49.092;8.516;2023-03-04T11:28:58;6.00;39.10
12156;DHT22;6141;49.092;8.516;2023-03-04T11:31:29;6.00;38.40
12156;DHT22;6141;49.092;8.516;2023-03-04T11:34:00;6.00;39.50
12156;DHT22;6141;49.092;8.516;2023-03-04T11:36:32;6.20;37.90
12156;DHT22;6141;49.092;8.516;2023-03-04T11:39:03;6.20;38.00
12156;DHT22;6141;49.092;8.516;2023-03-04T11:41:36;6.20;38.20
12156;DHT22;6141;49.092;8.516;2023-03-04T11:44:06;6.20;37.90
12156;DHT22;6141;49.092;8.516;2023-03-04T11:49:37;6.20;37.60
12156;DHT22;6141;49.092;8.516;2023-03-04T11:52:13;6.30;38.70
12156;DHT22;6141;49.092;8.516;2023-03-04T11:54:58;6.50;36.60
12156;DHT22;6141;49.092;8.516;2023-03-04T11:57:30;6.60;36.20
12156;DHT22;6141;49.092;8.516;2023-03-04T12:00:03;6.50;36.20
12156;DHT22;6141;49.092;8.516;2023-03-04T12:02:38;6.40;36.60
12156;DHT22;6141;49.092;8.516;2023-03-04T12:05:13;6.40;36.40
12156;DHT22;6141;49.092;8.516;2023-03-04T12:07:52;6.40;36.50
12156;DHT22;6141;49.092;8.516;2023-03-04T12:10:29;6.40;37.00
12156;DHT22;6141;49.092;8.516;2023-03-04T12:15:48;6.60;36.20
12156;DHT22;6141;49.092;8.516;2023-03-04T12:18:32;6.50;36.00
12156;DHT22;6141;49.092;8.516;2023-03-04T12:21:12;6.60;35.60
12156;DHT22;6141;49.092;8.516;2023-03-04T12:23:51;6.50;36.10
12156;DHT22;6141;49.092;8.516;2023-03-04T12:26:27;6.50;36.20
12156;DHT22;6141;49.092;8.516;2023-03-04T12:28:59;6.60;36.20
12156;DHT22;6141;49.092;8.516;2023-03-04T12:31:34;6.60;36.10
12156;DHT22;6141;49.092;8.516;2023-03-04T12:34:15;6.60;35.40
12156;DHT22;6141;49.092;8.516;2023-03-04T12:36:47;6.60;35.50
12156;DHT22;6141;49.092;8.516;2023-03-04T12:39:23;6.50;35.90
12156;DHT22;6141;49.092;8.516;2023-03-04T12:41:56;6.70;35.30
12156;DHT22;6141;49.092;8.516;2023-03-04T12:44:26;6.50;35.70
12156;DHT22;6141;49.092;8.516;2023-03-04T12:47:03;6.40;36.10
12156;DHT22;6141;49.092;8.516;2023-03-04T12:49:46;6.50;36.20
12156;DHT22;6141;49.092;8.516;2023-03-04T12:52:20;6.40;36.20
12156;DHT22;6141;49.092;8.516;2023-03-04T12:54:52;6.40;36.60
12156;DHT22;6141;49.092;8.516;2023-03-04T12:57:25;6.60;36.20
12156;DHT22;6141;49.092;8.516;2023-03-04T12:59:55;6.80;35.90
12156;DHT22;6141;49.092;8.516;2023-03-04T13:02:32;6.80;34.70
12156;DHT22;6141;49.092;8.516;2023-03-04T13:05:02;6.70;35.10
12156;DHT22;6141;49.092;8.516;2023-03-04T13:07:36;6.70;35.40
12156;DHT22;6141;49.092;8.516;2023-03-04T13:10:07;6.70;35.30
12156;DHT22;6141;49.092;8.516;2023-03-04T13:12:47;6.80;34.60
12156;DHT22;6141;49.092;8.516;2023-03-04T13:18:29;7.00;34.20
12156;DHT22;6141;49.092;8.516;2023-03-04T13:21:05;7.10;33.80
12156;DHT22;6141;49.092;8.516;2023-03-04T13:23:33;7.20;34.00
12156;DHT22;6141;49.092;8.516;2023-03-04T13:26:14;7.10;33.90
12156;DHT22;6141;49.092;8.516;2023-03-04T13:28:45;7.00;34.20
12156;DHT22;6141;49.092;8.516;2023-03-04T13:31:20;6.90;34.60
12156;DHT22;6141;49.092;8.516;2023-03-04T13:33:54;6.90;34.50
12156;DHT22;6141;49.092;8.516;2023-03-04T13:36:27;7.00;35.10
12156;DHT22;6141;49.092;8.516;2023-03-04T13:38:59;6.80;34.20
12156;DHT22;6141;49.092;8.516;2023-03-04T13:41:31;6.90;34.70
12156;DHT22;6141;49.092;8.516;2023-03-04T13:47:13;6.80;34.40
12156;DHT22;6141;49.092;8.516;2023-03-04T13:49:42;6.70;35.30
12156;DHT22;6141;49.092;8.516;2023-03-04T13:57:49;6.90;34.40
12156;DHT22;6141;49.092;8.516;2023-03-04T14:00:18;6.90;34.40
12156;DHT22;6141;49.092;8.516;2023-03-04T14:02:48;6.80;34.00
12156;DHT22;6141;49.092;8.516;2023-03-04T14:05:16;6.70;34.40
12156;DHT22;6141;49.092;8.516;2023-03-04T14:07:44;6.90;34.20
12156;DHT22;6141;49.092;8.516;2023-03-04T14:10:19;6.80;34.30
12156;DHT22;6141;49.092;8.516;2023-03-04T14:12:50;6.80;34.90
12156;DHT22;6141;49.092;8.516;2023-03-04T14:15:21;6.80;34.60
12156;DHT22;6141;49.092;8.516;2023-03-04T14:17:51;7.00;34.20
12156;DHT22;6141;49.092;8.516;2023-03-04T14:20:22;7.20;33.50
12156;DHT22;6141;49.092;8.516;2023-03-04T14:22:51;7.20;34.30
12156;DHT22;6141;49.092;8.516;2023-03-04T14:25:20;7.30;33.20
12156;DHT22;6141;49.092;8.516;2023-03-04T14:27:49;7.40;33.00
12156;DHT22;6141;49.092;8.516;2023-03-04T14:30:19;7.50;33.00
12156;DHT22;6141;49.092;8.516;2023-03-04T14:33:11;7.40;32.10
12156;DHT22;6141;49.092;8.516;2023-03-04T14:35:44;7.50;31.70
12156;DHT22;6141;49.092;8.516;2023-03-04T14:38:15;7.70;30.90
12156;DHT22;6141;49.092;8.516;2023-03-04T14:40:48;7.80;31.00
12156;DHT22;6141;49.092;8.516;2023-03-04T14:43:19;8.00;32.00
12156;DHT22;6141;49.092;8.516;2023-03-04T14:45:47;7.70;32.20
12156;DHT22;6141;49.092;8.516;2023-03-04T14:48:19;7.50;32.50
12156;DHT22;6141;49.092;8.516;2023-03-04T14:50:47;7.50;32.80
12156;DHT22;6141;49.092;8.516;2023-03-04T14:53:16;7.60;32.60
12156;DHT22;6141;49.092;8.516;2023-03-04T14:55:54;7.60;32.30
12156;DHT22;6141;49.092;8.516;2023-03-04T14:58:24;7.60;32.30
12156;DHT22;6141;49.092;8.516;2023-03-04T15:03:40;7.60;32.70
12156;DHT22;6141;49.092;8.516;2023-03-04T15:06:15;7.60;31.80
12156;DHT22;6141;49.092;8.516;2023-03-04T15:08:44;7.80;31.50
12156;DHT22;6141;49.092;8.516;2023-03-04T15:11:13;7.80;31.00
12156;DHT22;6141;49.092;8.516;2023-03-04T15:13:48;7.90;31.10
12156;DHT22;6141;49.092;8.516;2023-03-04T15:16:17;7.90;31.10
12156;DHT22;6141;49.092;8.516;2023-03-04T15:18:55;7.90;31.10
12156;DHT22;6141;49.092;8.516;2023-03-04T15:21:28;7.70;30.90
12156;DHT22;6141;49.092;8.516;2023-03-04T15:23:56;7.50;32.50
12156;DHT22;6141;49.092;8.516;2023-03-04T15:26:24;7.40;32.50
12156;DHT22;6141;49.092;8.516;2023-03-04T15:28:54;7.30;32.50
12156;DHT22;6141;49.092;8.516;2023-03-04T15:31:23;7.20;33.30
12156;DHT22;6141;49.092;8.516;2023-03-04T15:33:52;6.90;33.90
12156;DHT22;6141;49.092;8.516;2023-03-04T15:36:22;6.80;34.80
12156;DHT22;6141;49.092;8.516;2023-03-04T15:38:51;6.70;35.20
12156;DHT22;6141;49.092;8.516;2023-03-04T15:41:21;6.70;35.40
12156;DHT22;6141;49.092;8.516;2023-03-04T15:43:50;6.80;35.40
12156;DHT22;6141;49.092;8.516;2023-03-04T15:46:18;7.00;34.60
12156;DHT22;6141;49.092;8.516;2023-03-04T15:48:48;7.00;34.30
12156;DHT22;6141;49.092;8.516;2023-03-04T15:51:19;7.00;34.40
12156;DHT22;6141;49.092;8.516;2023-03-04T15:53:50;6.90;34.60
12156;DHT22;6141;49.092;8.516;2023-03-04T15:56:19;6.80;35.20
12156;DHT22;6141;49.092;8.516;2023-03-04T15:58:50;6.70;36.10
12156;DHT22;6141;49.092;8.516;2023-03-04T16:01:19;6.60;36.10
12156;DHT22;6141;49.092;8.516;2023-03-04T16:03:48;6.60;36.20
12156;DHT22;6141;49.092;8.516;2023-03-04T16:06:19;6.60;36.20
12156;DHT22;6141;49.092;8.516;2023-03-04T16:08:50;6.90;36.50
12156;DHT22;6141;49.092;8.516;2023-03-04T16:11:19;6.70;36.30
12156;DHT22;6141;49.092;8.516;2023-03-04T16:13:47;6.60;36.20
12156;DHT22;6141;49.092;8.516;2023-03-04T16:16:15;6.50;36.60
12156;DHT22;6141;49.092;8.516;2023-03-04T16:18:45;6.20;37.70
12156;DHT22;6141;49.092;8.516;2023-03-04T16:21:14;6.10;38.50
12156;DHT22;6141;49.092;8.516;2023-03-04T16:23:43;6.10;38.40
12156;DHT22;6141;49.092;8.516;2023-03-04T16:26:14;6.00;39.10
12156;DHT22;6141;49.092;8.516;2023-03-04T16:28:42;6.00;38.80
12156;DHT22;6141;49.092;8.516;2023-03-04T16:31:11;6.10;38.50
12156;DHT22;6141;49.092;8.516;2023-03-04T16:33:39;6.20;38.10
12156;DHT22;6141;49.092;8.516;2023-03-04T16:36:10;6.40;37.40
12156;DHT22;6141;49.092;8.516;2023-03-04T16:38:39;6.60;36.80
12156;DHT22;6141;49.092;8.516;2023-03-04T16:41:08;6.70;36.40
12156;DHT22;6141;49.092;8.516;2023-03-04T16:43:41;6.80;36.40